createdAt,value
2022-09-03T00:01:50.713Z,3.08
2022-09-03T00:04:26.862Z,2.85
2022-09-03T00:07:02.280Z,3.28
2022-09-03T00:09:36.177Z,3.20
2022-09-03T00:12:12.952Z,2.05
2022-09-03T00:14:43.470Z,2.20
2022-09-03T00:17:47.160Z,2.47
2022-09-03T00:22:52.178Z,1.98
2022-09-03T00:25:25.087Z,2.30
2022-09-03T00:27:59.775Z,2.03
2022-09-03T00:30:27.935Z,1.52
2022-09-03T00:33:07.162Z,1.67
2022-09-03T00:35:54.363Z,2.42
2022-09-03T00:38:22.315Z,2.85
2022-09-03T00:40:54.622Z,2.05
2022-09-03T00:44:00.988Z,2.03
2022-09-03T00:46:36.867Z,1.70
2022-09-03T00:49:40.200Z,2.85
2022-09-03T00:52:35.784Z,1.60
2022-09-03T00:55:15.906Z,2.45
2022-09-03T00:58:11.768Z,2.83
2022-09-03T01:00:51.153Z,1.55
2022-09-03T01:03:28.114Z,1.90
2022-09-03T01:06:37.056Z,1.63
2022-09-03T01:09:16.970Z,1.88
2022-09-03T01:12:13.519Z,1.63
2022-09-03T01:15:00.539Z,2.42
2022-09-03T01:17:42.345Z,3.10
2022-09-03T01:20:49.398Z,2.92
2022-09-03T01:23:25.391Z,3.10
2022-09-03T01:26:24.625Z,1.40
2022-09-03T01:29:12.267Z,2.33
2022-09-03T01:32:19.820Z,3.05
2022-09-03T01:35:11.176Z,1.50
2022-09-03T01:38:17.069Z,1.50
2022-09-03T01:41:34.080Z,1.65
2022-09-03T01:44:40.551Z,2.25
2022-09-03T01:47:13.289Z,1.70
2022-09-03T01:50:04.918Z,1.58
2022-09-03T01:52:43.520Z,1.92
2022-09-03T01:57:49.427Z,3.22
2022-09-03T02:00:22.996Z,1.77
2022-09-03T02:02:51.450Z,3.15
2022-09-03T02:05:23.258Z,3.40
2022-09-03T02:08:01.171Z,1.60
2022-09-03T02:10:31.627Z,2.03
2022-09-03T02:13:04.643Z,1.98
2022-09-03T02:15:32.672Z,2.13
2022-09-03T02:18:02.160Z,2.10
2022-09-03T02:20:34.469Z,1.77
2022-09-03T02:23:01.007Z,2.20
2022-09-03T02:25:43.030Z,1.98
2022-09-03T02:28:16.990Z,1.67
2022-09-03T02:30:44.619Z,3.20
2022-09-03T02:33:11.319Z,2.00
2022-09-03T02:35:41.717Z,1.73
2022-09-03T02:38:20.182Z,2.63
2022-09-03T02:43:23.851Z,2.80
2022-09-03T02:45:55.909Z,1.60
2022-09-03T02:48:24.387Z,2.85
2022-09-03T02:50:51.085Z,2.55
2022-09-03T02:53:17.696Z,2.15
2022-09-03T02:55:44.160Z,2.90
2022-09-03T02:58:10.704Z,1.85
2022-09-03T03:00:37.489Z,3.10
2022-09-03T03:03:05.140Z,3.58
2022-09-03T03:05:46.329Z,2.95
2022-09-03T03:08:15.270Z,1.90
2022-09-03T03:10:45.044Z,2.45
2022-09-03T03:13:12.250Z,1.90
2022-09-03T03:15:38.889Z,2.42
2022-09-03T03:18:05.959Z,2.10
2022-09-03T03:20:33.311Z,3.70
2022-09-03T03:23:04.256Z,3.35
2022-09-03T03:25:32.954Z,3.17
2022-09-03T03:28:00.053Z,2.08
2022-09-03T03:30:26.679Z,3.97
2022-09-03T03:32:54.094Z,3.05
2022-09-03T03:35:20.677Z,2.55
2022-09-03T03:37:47.171Z,4.15
2022-09-03T03:40:14.231Z,3.92
2022-09-03T03:42:41.161Z,2.78
2022-09-03T03:45:10.145Z,2.05
2022-09-03T03:47:37.177Z,3.50
2022-09-03T03:50:04.648Z,3.88
2022-09-03T03:52:31.140Z,4.40
2022-09-03T03:54:57.657Z,3.92
2022-09-03T03:57:24.239Z,3.58
2022-09-03T03:59:50.905Z,3.78
2022-09-03T04:02:17.918Z,1.90
2022-09-03T04:04:44.528Z,2.55
2022-09-03T04:07:11.009Z,1.80
2022-09-03T04:09:38.925Z,2.60
2022-09-03T04:12:08.547Z,4.55
2022-09-03T04:14:35.463Z,3.40
2022-09-03T04:17:03.078Z,2.40
2022-09-03T04:19:30.185Z,3.50
2022-09-03T04:21:56.812Z,2.10
2022-09-03T04:24:23.879Z,3.95
2022-09-03T04:26:50.398Z,2.58
2022-09-03T04:29:17.937Z,2.25
2022-09-03T04:32:04.343Z,2.50
2022-09-03T04:34:30.807Z,4.03
2022-09-03T04:36:59.043Z,4.72
2022-09-03T04:39:27.596Z,2.40
2022-09-03T04:41:54.679Z,2.58
2022-09-03T04:44:21.543Z,4.13
2022-09-03T04:46:48.447Z,1.90
2022-09-03T04:49:20.681Z,2.75
2022-09-03T04:54:13.511Z,3.70
2022-09-03T04:56:40.402Z,2.15
2022-09-03T04:59:09.519Z,3.78
2022-09-03T05:01:38.594Z,3.83
2022-09-03T05:04:06.812Z,2.70
2022-09-03T05:06:34.405Z,2.88
2022-09-03T05:09:02.049Z,2.92
2022-09-03T05:11:29.629Z,2.17
2022-09-03T05:13:57.890Z,2.13
2022-09-03T05:16:26.308Z,2.10
2022-09-03T05:18:56.959Z,2.10
2022-09-03T05:21:26.648Z,2.03
2022-09-03T05:23:55.233Z,2.78
2022-09-03T05:26:29.594Z,1.75
2022-09-03T05:29:01.438Z,3.42
2022-09-03T05:31:35.954Z,3.50
2022-09-03T05:34:05.264Z,2.55
2022-09-03T05:36:34.762Z,2.30
2022-09-03T05:39:01.549Z,2.65
2022-09-03T05:41:30.598Z,3.55
2022-09-03T05:44:03.252Z,4.03
2022-09-03T05:46:34.778Z,2.60
2022-09-03T05:49:04.474Z,2.80
2022-09-03T05:51:33.984Z,2.65
2022-09-03T05:54:03.799Z,3.38
2022-09-03T05:56:34.452Z,4.30
2022-09-03T05:59:05.606Z,3.72
2022-09-03T06:01:36.790Z,3.17
2022-09-03T06:04:11.241Z,2.20
2022-09-03T06:06:42.847Z,2.08
2022-09-03T06:09:11.417Z,2.80
2022-09-03T06:11:41.116Z,2.65
2022-09-03T06:14:12.858Z,2.20
2022-09-03T06:16:44.741Z,2.15
2022-09-03T06:19:19.165Z,3.22
2022-09-03T06:21:46.642Z,2.08
2022-09-03T06:24:28.420Z,2.65
2022-09-03T06:27:03.085Z,2.70
2022-09-03T06:29:30.706Z,3.25
2022-09-03T06:31:57.406Z,2.70
2022-09-03T06:34:26.859Z,3.95
2022-09-03T06:36:55.333Z,2.58
2022-09-03T06:39:24.764Z,3.28
2022-09-03T06:41:52.043Z,2.92
2022-09-03T06:44:18.552Z,2.47
2022-09-03T06:46:46.005Z,3.40
2022-09-03T06:49:17.728Z,3.35
2022-09-03T06:51:44.372Z,3.58
2022-09-03T06:54:12.225Z,2.00
2022-09-03T06:56:41.729Z,2.78
2022-09-03T06:59:10.744Z,3.58
2022-09-03T07:01:40.879Z,2.45
2022-09-03T07:04:12.890Z,2.63
2022-09-03T07:06:40.482Z,2.85
2022-09-03T07:09:08.979Z,2.72
2022-09-03T07:11:36.395Z,2.28
2022-09-03T07:14:12.252Z,2.65
2022-09-03T07:16:38.912Z,3.75
2022-09-03T07:19:06.366Z,2.50
2022-09-03T07:21:36.614Z,2.00
2022-09-03T07:24:05.123Z,3.70
2022-09-03T07:26:34.520Z,3.17
2022-09-03T07:29:01.286Z,2.63
2022-09-03T07:31:33.518Z,2.08
2022-09-03T07:34:06.186Z,2.30
2022-09-03T07:36:38.959Z,1.77
2022-09-03T07:39:07.225Z,1.98
2022-09-03T07:41:34.055Z,1.60
2022-09-03T07:44:09.960Z,1.75
2022-09-03T07:46:45.772Z,1.98
2022-09-03T07:49:16.943Z,2.08
2022-09-03T07:51:47.608Z,1.90
2022-09-03T07:54:14.192Z,1.75
2022-09-03T07:56:41.098Z,2.28
2022-09-03T07:59:08.138Z,1.27
2022-09-03T08:01:41.544Z,2.20
2022-09-03T08:04:09.763Z,1.95
2022-09-03T08:06:39.719Z,1.52
2022-09-03T08:09:19.456Z,1.50
2022-09-03T08:11:46.054Z,1.85
2022-09-03T08:14:16.556Z,1.60
2022-09-03T08:16:50.529Z,1.83
2022-09-03T08:19:20.549Z,1.67
2022-09-03T08:21:47.165Z,1.92
2022-09-03T08:24:31.449Z,2.25
2022-09-03T08:26:58.144Z,1.75
2022-09-03T08:29:24.718Z,1.77
2022-09-03T08:31:54.520Z,1.77
2022-09-03T08:34:23.285Z,1.70
2022-09-03T08:36:52.047Z,1.73
2022-09-03T08:39:20.682Z,1.85
2022-09-03T08:41:53.067Z,1.45
2022-09-03T08:44:46.963Z,1.70
2022-09-03T08:47:47.343Z,1.40
2022-09-03T08:50:31.041Z,1.40
2022-09-03T08:53:17.994Z,1.23
2022-09-03T08:56:01.854Z,1.30
2022-09-03T08:58:31.831Z,1.65
2022-09-03T09:01:15.187Z,1.38
2022-09-03T09:03:58.076Z,1.60
2022-09-03T09:06:33.702Z,1.20
2022-09-03T09:09:22.567Z,1.20
2022-09-03T09:11:59.325Z,1.38
2022-09-03T09:14:44.657Z,1.20
2022-09-03T09:17:14.356Z,1.25
2022-09-03T09:20:10.721Z,1.20
2022-09-03T09:22:40.318Z,0.95
2022-09-03T09:25:31.705Z,1.00
2022-09-03T09:28:03.561Z,0.90
2022-09-03T09:30:31.654Z,1.17
2022-09-03T09:33:00.438Z,1.13
2022-09-03T09:35:27.421Z,1.13
2022-09-03T09:37:56.629Z,1.15
2022-09-03T09:40:41.483Z,1.42
2022-09-03T09:43:21.470Z,0.85
2022-09-03T09:45:59.051Z,1.17
2022-09-03T09:48:34.401Z,1.50
2022-09-03T09:51:06.348Z,1.27
2022-09-03T09:56:00.432Z,1.33
2022-09-03T09:58:30.729Z,1.05
2022-09-03T10:01:18.758Z,1.92
2022-09-03T10:03:55.203Z,1.30
2022-09-03T10:06:48.768Z,1.25
2022-09-03T10:09:18.752Z,1.00
2022-09-03T10:11:52.157Z,1.10
2022-09-03T10:14:24.219Z,1.23
2022-09-03T10:19:43.870Z,1.13
2022-09-03T10:22:18.049Z,1.00
2022-09-03T10:25:14.176Z,1.42
2022-09-03T10:27:41.177Z,1.20
2022-09-03T10:30:08.993Z,1.25
2022-09-03T10:32:51.010Z,1.30
2022-09-03T10:35:23.875Z,1.20
2022-09-03T10:38:13.028Z,0.98
2022-09-03T10:40:50.105Z,1.20
2022-09-03T10:43:53.834Z,1.15
2022-09-03T10:46:26.906Z,1.15
2022-09-03T10:49:08.915Z,1.20
2022-09-03T10:51:39.647Z,1.10
2022-09-03T10:54:41.111Z,1.23
2022-09-03T10:57:27.967Z,1.20
2022-09-03T10:59:57.131Z,1.20
2022-09-03T11:02:47.340Z,1.20
2022-09-03T11:05:34.385Z,1.25
2022-09-03T11:08:11.048Z,1.20
2022-09-03T11:10:45.198Z,1.17
2022-09-03T11:13:18.676Z,1.45
2022-09-03T11:15:45.860Z,1.35
2022-09-03T11:18:31.009Z,1.23
2022-09-03T11:21:01.335Z,1.10
2022-09-03T11:23:29.208Z,1.05
2022-09-03T11:25:58.632Z,1.45
2022-09-03T11:28:45.438Z,1.20
2022-09-03T11:31:47.088Z,1.00
2022-09-03T11:34:22.184Z,1.48
2022-09-03T11:36:50.047Z,1.35
2022-09-03T11:39:23.281Z,1.20
2022-09-03T11:41:59.966Z,1.40
2022-09-03T11:44:44.799Z,1.10
2022-09-03T11:47:38.042Z,1.20
2022-09-03T11:50:09.686Z,1.15
2022-09-03T11:52:40.537Z,0.80
2022-09-03T11:55:08.076Z,1.10
2022-09-03T11:57:43.384Z,1.42
2022-09-03T12:00:18.088Z,1.10
2022-09-03T12:02:46.921Z,1.20
2022-09-03T12:05:28.752Z,1.25
2022-09-03T12:08:09.091Z,0.98
2022-09-03T12:10:47.682Z,0.95
2022-09-03T12:13:28.017Z,1.05
2022-09-03T12:16:13.248Z,1.00
2022-09-03T12:18:41.663Z,1.10
2022-09-03T12:21:09.708Z,1.05
2022-09-03T12:23:58.125Z,1.35
2022-09-03T12:26:27.318Z,1.20
2022-09-03T12:28:56.342Z,1.10
2022-09-03T12:31:29.659Z,1.10
2022-09-03T12:34:07.897Z,1.27
2022-09-03T12:36:43.324Z,1.13
2022-09-03T12:40:04.427Z,1.20
2022-09-03T12:42:08.574Z,1.05
2022-09-03T12:44:35.001Z,1.00
2022-09-03T12:52:49.511Z,1.10
2022-09-03T12:55:27.726Z,1.33
2022-09-03T12:58:04.294Z,1.23
2022-09-03T13:00:33.052Z,1.27
2022-09-03T13:03:19.569Z,1.40
2022-09-03T13:05:50.572Z,1.65
2022-09-03T13:08:26.730Z,1.50
2022-09-03T13:10:55.981Z,1.30
2022-09-03T13:13:28.285Z,1.17
2022-09-03T13:16:10.184Z,1.30
2022-09-03T13:18:45.645Z,1.50
2022-09-03T13:21:27.372Z,1.85
2022-09-03T13:24:09.540Z,1.70
2022-09-03T13:26:54.862Z,1.30
2022-09-03T13:29:30.366Z,1.00
2022-09-03T13:32:10.827Z,1.40
2022-09-03T13:34:54.761Z,1.27
2022-09-03T13:37:39.514Z,1.80
2022-09-03T13:40:17.172Z,1.40
2022-09-03T13:43:28.693Z,1.15
2022-09-03T13:46:00.567Z,1.55
2022-09-03T13:49:02.147Z,1.30
2022-09-03T13:51:31.384Z,1.55
2022-09-03T13:54:02.763Z,1.20
2022-09-03T13:56:38.058Z,1.50
2022-09-03T13:59:19.884Z,1.50
2022-09-03T14:02:00.953Z,1.40
2022-09-03T14:05:12.770Z,1.40
2022-09-03T14:07:42.379Z,1.20
2022-09-03T14:10:14.622Z,1.20
2022-09-03T14:12:46.836Z,1.20
2022-09-03T14:15:26.017Z,1.40
2022-09-03T14:17:57.675Z,0.93
2022-09-03T14:20:29.616Z,1.45
2022-09-03T14:23:33.909Z,1.25
2022-09-03T14:26:03.917Z,1.20
2022-09-03T14:28:38.503Z,1.42
2022-09-03T14:31:17.293Z,1.25
2022-09-03T14:34:14.259Z,1.50
2022-09-03T14:39:26.723Z,1.30
2022-09-03T14:42:08.297Z,1.30
2022-09-03T14:44:44.139Z,1.17
2022-09-03T14:47:19.341Z,1.40
2022-09-03T14:49:54.989Z,1.23
2022-09-03T14:52:27.396Z,1.20
2022-09-03T14:55:19.918Z,1.27
2022-09-03T14:58:03.982Z,1.85
2022-09-03T15:00:46.207Z,1.38
2022-09-03T15:03:35.163Z,1.55
2022-09-03T15:06:30.801Z,1.60
2022-09-03T15:09:31.854Z,1.90
2022-09-03T15:12:03.454Z,1.30
2022-09-03T15:17:37.827Z,1.63
2022-09-03T15:20:23.706Z,1.20
2022-09-03T15:23:14.953Z,1.40
2022-09-03T15:26:24.747Z,1.55
2022-09-03T15:29:27.143Z,1.77
2022-09-03T15:32:04.031Z,1.98
2022-09-03T15:34:36.392Z,1.60
2022-09-03T15:37:10.930Z,1.80
2022-09-03T15:39:40.760Z,1.85
2022-09-03T15:42:13.486Z,2.00
2022-09-03T15:44:55.340Z,2.88
2022-09-03T15:47:50.997Z,2.00
2022-09-03T15:50:47.842Z,1.70
2022-09-03T15:56:13.446Z,1.80
2022-09-03T15:59:03.348Z,2.10
2022-09-03T16:01:40.000Z,1.65
2022-09-03T16:04:20.830Z,2.00
2022-09-03T16:07:04.224Z,1.42
2022-09-03T16:09:44.976Z,2.00
2022-09-03T16:12:33.470Z,2.78
2022-09-03T16:15:16.265Z,1.73
2022-09-03T16:18:01.686Z,1.40
2022-09-03T16:20:31.153Z,1.10
2022-09-03T16:23:02.840Z,1.48
2022-09-03T16:25:32.523Z,1.70
2022-09-03T16:28:14.724Z,1.30
2022-09-03T16:30:52.897Z,1.42
2022-09-03T16:33:49.097Z,1.85
2022-09-03T16:36:34.382Z,1.42
2022-09-03T16:39:12.385Z,1.27
2022-09-03T16:42:24.651Z,1.48
2022-09-03T16:45:22.438Z,1.30
2022-09-03T16:48:12.135Z,2.50
2022-09-03T16:51:16.148Z,1.98
2022-09-03T16:54:08.941Z,2.92
2022-09-03T16:56:54.723Z,7.78
2022-09-03T16:59:28.542Z,5.35
2022-09-03T17:02:44.160Z,2.95
2022-09-03T17:05:38.007Z,3.65
2022-09-03T17:08:32.114Z,8.95
2022-09-03T17:11:29.220Z,4.22
2022-09-03T17:13:55.743Z,3.72
2022-09-03T17:16:37.097Z,3.17
2022-09-03T17:19:28.630Z,2.67
2022-09-03T17:22:13.833Z,2.05
2022-09-03T17:24:54.762Z,2.15
2022-09-03T17:27:40.058Z,1.98
2022-09-03T17:30:15.790Z,1.88
2022-09-03T17:32:57.307Z,1.60
2022-09-03T17:35:53.749Z,3.25
2022-09-03T17:38:34.146Z,2.00
2022-09-03T17:41:20.862Z,2.03
2022-09-03T17:43:55.691Z,1.30
2022-09-03T17:46:22.447Z,1.52
2022-09-03T17:48:58.930Z,1.80
2022-09-03T17:51:50.415Z,1.75
2022-09-03T17:54:41.054Z,1.63
2022-09-03T17:57:17.992Z,1.25
2022-09-03T18:00:05.380Z,1.33
2022-09-03T18:02:55.942Z,1.35
2022-09-03T18:05:32.257Z,1.45
2022-09-03T18:08:04.665Z,1.25
2022-09-03T18:10:40.258Z,1.27
2022-09-03T18:13:13.639Z,1.30
2022-09-03T18:15:51.121Z,2.03
2022-09-03T18:18:27.524Z,1.10
2022-09-03T18:21:24.384Z,1.70
2022-09-03T18:24:43.620Z,1.85
2022-09-03T18:27:33.822Z,1.63
2022-09-03T18:30:28.195Z,1.42
2022-09-03T18:33:13.619Z,1.75
2022-09-03T18:36:02.144Z,1.08
2022-09-03T18:38:49.975Z,1.60
2022-09-03T18:42:01.949Z,1.13
2022-09-03T18:45:22.467Z,1.90
2022-09-03T18:48:35.935Z,1.60
2022-09-03T18:51:39.158Z,1.80
2022-09-03T18:55:06.367Z,1.38
2022-09-03T18:58:25.622Z,1.80
2022-09-03T19:01:27.338Z,1.65
2022-09-03T19:04:26.725Z,1.83
2022-09-03T19:07:28.936Z,1.65
2022-09-03T19:10:21.504Z,1.63
2022-09-03T19:13:21.806Z,2.95
2022-09-03T19:16:20.279Z,3.03
2022-09-03T19:19:34.853Z,2.90
2022-09-03T19:22:27.138Z,2.67
2022-09-03T19:25:23.251Z,1.85
2022-09-03T19:28:31.198Z,2.55
2022-09-03T19:31:41.227Z,2.28
2022-09-03T19:34:51.328Z,2.60
2022-09-03T19:37:40.725Z,2.03
2022-09-03T19:40:38.029Z,1.85
2022-09-03T19:43:41.528Z,2.50
2022-09-03T19:49:49.355Z,1.40
2022-09-03T19:52:51.375Z,2.58
2022-09-03T19:55:44.166Z,1.95
2022-09-03T19:58:43.150Z,2.45
2022-09-03T20:01:28.529Z,1.95
2022-09-03T20:04:15.188Z,2.65
2022-09-03T20:07:00.475Z,2.40
2022-09-03T20:09:49.746Z,3.20
2022-09-03T20:12:18.793Z,2.00
2022-09-03T20:14:45.337Z,1.70
2022-09-03T20:17:49.693Z,1.90
2022-09-03T20:20:27.342Z,2.38
2022-09-03T20:23:01.672Z,2.63
2022-09-03T20:25:44.635Z,2.47
2022-09-03T20:28:49.698Z,2.50
2022-09-03T20:32:12.180Z,2.63
2022-09-03T20:37:36.176Z,2.50
2022-09-03T20:40:25.708Z,2.47
2022-09-03T20:43:21.496Z,1.33
2022-09-03T20:46:00.319Z,2.25
2022-09-03T20:48:29.680Z,2.67
2022-09-03T20:51:07.819Z,1.58
2022-09-03T20:53:50.542Z,2.38
2022-09-03T20:56:26.790Z,1.80
2022-09-03T20:59:12.467Z,1.77
2022-09-03T21:02:00.092Z,1.77
2022-09-03T21:04:39.391Z,1.90
2022-09-03T21:07:22.036Z,1.35
2022-09-03T21:10:08.598Z,1.30
2022-09-03T21:12:46.143Z,1.52
2022-09-03T21:15:27.574Z,1.40
2022-09-03T21:18:18.063Z,1.27
2022-09-03T21:20:48.066Z,1.45
2022-09-03T21:23:34.734Z,1.45
2022-09-03T21:26:21.374Z,1.70
2022-09-03T21:29:06.982Z,1.60
2022-09-03T21:31:59.541Z,2.13
2022-09-03T21:34:43.571Z,1.50
2022-09-03T21:37:12.779Z,1.70
2022-09-03T21:39:44.230Z,2.58
2022-09-03T21:42:20.942Z,1.73
2022-09-03T21:44:55.500Z,3.03
2022-09-03T21:47:23.405Z,1.85
2022-09-03T21:49:59.960Z,1.98
2022-09-03T21:52:34.756Z,2.30
2022-09-03T21:55:26.500Z,1.92
2022-09-03T21:58:02.671Z,1.20
2022-09-03T22:00:32.520Z,1.80
2022-09-03T22:03:00.146Z,1.90
2022-09-03T22:05:29.833Z,1.35
2022-09-03T22:08:21.741Z,1.40
2022-09-03T22:10:51.258Z,1.77
2022-09-03T22:13:17.769Z,2.05
2022-09-03T22:15:50.584Z,1.98
2022-09-03T22:18:29.539Z,1.27
2022-09-03T22:21:19.742Z,2.10
2022-09-03T22:24:26.494Z,2.13
2022-09-03T22:27:04.424Z,2.08
2022-09-03T22:29:53.241Z,1.77
2022-09-03T22:32:34.585Z,1.60
2022-09-03T22:35:19.632Z,2.00
2022-09-03T22:38:13.418Z,2.25
2022-09-03T22:40:52.488Z,1.70
2022-09-03T22:43:19.140Z,2.00
2022-09-03T22:46:09.054Z,2.40
2022-09-03T22:48:38.583Z,2.08
2022-09-03T22:51:05.412Z,2.20
2022-09-03T22:54:09.071Z,1.00
2022-09-03T22:59:19.734Z,2.40
2022-09-03T23:01:57.152Z,2.20
2022-09-03T23:04:47.743Z,2.28
2022-09-03T23:07:22.138Z,3.10
2022-09-03T23:09:57.702Z,2.70
2022-09-03T23:12:39.508Z,2.42
2022-09-03T23:15:11.439Z,2.00
2022-09-03T23:17:42.763Z,2.10
2022-09-03T23:20:22.868Z,2.22
2022-09-03T23:23:14.751Z,1.80
2022-09-03T23:25:49.939Z,2.72
2022-09-03T23:28:29.778Z,3.67
2022-09-03T23:31:22.105Z,2.33
2022-09-03T23:33:50.223Z,2.53
2022-09-03T23:36:53.114Z,4.07
2022-09-03T23:39:49.192Z,3.70
2022-09-03T23:42:46.838Z,2.40
2022-09-03T23:45:40.240Z,2.55
2022-09-03T23:48:09.444Z,2.60
2022-09-03T23:50:48.282Z,2.40
2022-09-03T23:53:37.144Z,3.47
2022-09-03T23:56:25.591Z,4.20
2022-09-03T23:59:14.063Z,4.80
